Time;durP1;ratioP1;P1;durP2;ratioP2;P2;SDS_P1;SDS_P2;PMS_P1;PMS_P2;Temp;Humidity;BMP_temperature;BMP_pressure;BME280_temperature;BME280_humidity;BME280_pressure;Samples;Min_cycle;Max_cycle;Signal;HPM_P1;HPM_P2
2023/12/22 00:00:33;;;;;;;17.85;3.78;;;;;;;;;;5047304;28;20033;-76
2023/12/22 00:02:59;;;;;;;29.45;4.35;;;;;;;;;;5030579;28;20036;-75
2023/12/22 00:05:26;;;;;;;29.70;4.38;;;;;;;;;;5030124;28;20036;-74
2023/12/22 00:07:52;;;;;;;21.90;4.07;;;;;;;;;;5047883;28;20037;-75
2023/12/22 00:10:18;;;;;;;19.25;2.75;;;;;;;;;;5046780;28;20025;-76
2023/12/22 00:12:44;;;;;;;13.85;2.92;;;;;;;;;;5055927;28;21243;-76
2023/12/22 00:15:11;;;;;;;13.10;2.38;;;;;;;;;;5050085;28;20382;-74
2023/12/22 00:17:37;;;;;;;15.90;2.60;;;;;;;;;;5044470;28;20048;-75
2023/12/22 00:20:03;;;;;;;15.00;2.20;;;;;;;;;;5043294;28;20041;-74
2023/12/22 00:22:30;;;;;;;9.38;1.70;;;;;;;;;;5047454;28;20037;-75
2023/12/22 00:24:56;;;;;;;11.15;1.70;;;;;;;;;;5046445;28;20033;-75
2023/12/22 00:27:22;;;;;;;6.30;1.58;;;;;;;;;;5047212;28;20025;-74
2023/12/22 00:29:50;;;;;;;12.02;1.95;;;;;;;;;;5046135;28;20064;-77
2023/12/22 00:32:16;;;;;;;13.73;2.22;;;;;;;;;;5050913;28;20029;-77
2023/12/22 00:34:43;;;;;;;10.75;1.65;;;;;;;;;;5051116;28;20071;-76
2023/12/22 00:37:09;;;;;;;16.15;3.00;;;;;;;;;;5032765;28;20032;-76
2023/12/22 00:39:35;;;;;;;15.70;2.75;;;;;;;;;;5049674;28;20049;-77
2023/12/22 00:42:04;;;;;;;17.95;2.60;;;;;;;;;;5050659;28;20029;-77
2023/12/22 00:44:30;;;;;;;15.55;2.85;;;;;;;;;;5051481;28;20029;-76
2023/12/22 00:46:56;;;;;;;17.80;2.65;;;;;;;;;;5050893;28;20096;-77
2023/12/22 00:49:22;;;;;;;30.73;4.67;;;;;;;;;;5030473;28;20030;-76
2023/12/22 00:51:48;;;;;;;20.17;3.30;;;;;;;;;;5051017;28;20306;-76
2023/12/22 00:54:15;;;;;;;18.55;3.42;;;;;;;;;;5050468;28;20179;-75
2023/12/22 00:56:42;;;;;;;29.42;3.42;;;;;;;;;;5045890;28;20029;-76
2023/12/22 00:59:10;;;;;;;27.02;2.95;;;;;;;;;;5049935;28;20037;-76
2023/12/22 01:01:36;;;;;;;24.38;4.28;;;;;;;;;;5052329;28;20041;-76
2023/12/22 01:04:02;;;;;;;28.58;3.85;;;;;;;;;;5051954;28;20047;-76
2023/12/22 01:06:28;;;;;;;23.80;3.10;;;;;;;;;;5060853;28;20033;-75
2023/12/22 01:08:54;;;;;;;23.77;3.70;;;;;;;;;;5065181;28;20032;-75
2023/12/22 01:11:20;;;;;;;19.42;3.47;;;;;;;;;;5061152;28;20040;-76
2023/12/22 01:13:46;;;;;;;23.05;2.88;;;;;;;;;;5056171;28;20045;-76
2023/12/22 01:16:12;;;;;;;26.08;4.03;;;;;;;;;;5049705;28;20041;-76
2023/12/22 01:18:42;;;;;;;23.27;3.65;;;;;;;;;;5050811;28;20039;-77
2023/12/22 01:21:08;;;;;;;24.10;2.97;;;;;;;;;;5051264;28;20481;-75
2023/12/22 01:23:34;;;;;;;22.65;3.75;;;;;;;;;;5049715;28;20078;-75
2023/12/22 01:26:00;;;;;;;23.38;3.67;;;;;;;;;;5048295;28;20514;-77
2023/12/22 01:28:27;;;;;;;29.65;4.38;;;;;;;;;;5048742;28;20029;-77
2023/12/22 01:30:53;;;;;;;23.55;3.53;;;;;;;;;;5050079;28;20037;-76
2023/12/22 01:33:19;;;;;;;27.67;3.65;;;;;;;;;;5050380;28;20055;-77
2023/12/22 01:35:46;;;;;;;32.28;3.47;;;;;;;;;;5049550;28;20120;-77
2023/12/22 01:38:12;;;;;;;35.25;3.70;;;;;;;;;;5050581;28;20366;-77
2023/12/22 01:40:38;;;;;;;20.30;3.40;;;;;;;;;;5050085;28;20048;-76
2023/12/22 01:43:05;;;;;;;23.27;3.67;;;;;;;;;;5047673;28;20037;-76
2023/12/22 01:45:31;;;;;;;30.92;4.40;;;;;;;;;;5049858;28;20032;-76
2023/12/22 01:47:57;;;;;;;30.10;4.18;;;;;;;;;;5030583;28;20037;-76
2023/12/22 01:50:24;;;;;;;34.75;3.85;;;;;;;;;;5048227;28;20110;-77
2023/12/22 01:52:50;;;;;;;37.58;3.83;;;;;;;;;;5048141;28;20033;-76
2023/12/22 01:55:17;;;;;;;32.70;4.90;;;;;;;;;;5047236;28;20021;-77
2023/12/22 01:57:44;;;;;;;26.50;4.07;;;;;;;;;;5048927;28;20036;-74
2023/12/22 02:00:10;;;;;;;32.70;5.32;;;;;;;;;;5047831;28;20044;-75
2023/12/22 02:02:42;;;;;;;33.20;3.67;;;;;;;;;;5055150;28;20033;-75
2023/12/22 02:05:11;;;;;;;36.67;4.70;;;;;;;;;;5066105;28;20066;-77
2023/12/22 02:07:46;;;;;;;30.90;4.05;;;;;;;;;;5064247;28;20044;-75
2023/12/22 02:10:12;;;;;;;32.85;4.85;;;;;;;;;;5059719;28;20036;-78
2023/12/22 02:12:38;;;;;;;38.25;4.60;;;;;;;;;;5050175;28;20087;-75
2023/12/22 02:15:05;;;;;;;45.28;4.57;;;;;;;;;;5049339;28;20112;-76
2023/12/22 02:17:32;;;;;;;34.92;5.55;;;;;;;;;;5047118;28;20052;-76
2023/12/22 02:19:59;;;;;;;44.42;5.70;;;;;;;;;;5045818;28;20112;-74
2023/12/22 02:22:25;;;;;;;40.35;4.95;;;;;;;;;;5048444;28;20056;-75
2023/12/22 02:24:52;;;;;;;38.00;5.35;;;;;;;;;;5050142;28;20032;-75
2023/12/22 02:27:37;;;;;;;50.92;7.25;;;;;;;;;;5045261;28;20045;-75
2023/12/22 02:30:09;;;;;;;38.35;4.53;;;;;;;;;;5048287;28;20379;-75
2023/12/22 02:32:36;;;;;;;40.15;5.43;;;;;;;;;;5049362;28;20128;-75
2023/12/22 02:35:04;;;;;;;44.50;7.78;;;;;;;;;;5049766;28;20027;-75
2023/12/22 02:37:32;;;;;;;37.25;5.43;;;;;;;;;;5046751;28;20445;-76
2023/12/22 02:39:59;;;;;;;33.47;5.65;;;;;;;;;;5045980;28;20053;-76
2023/12/22 02:42:29;;;;;;;37.35;5.90;;;;;;;;;;5047843;28;20025;-76
2023/12/22 02:44:57;;;;;;;41.30;5.95;;;;;;;;;;5047156;28;20029;-75
2023/12/22 02:47:27;;;;;;;46.33;6.50;;;;;;;;;;5049057;28;20041;-76
2023/12/22 02:49:53;;;;;;;36.15;5.50;;;;;;;;;;5045965;28;20073;-76
2023/12/22 02:52:19;;;;;;;28.27;6.25;;;;;;;;;;5031604;28;20033;-75
2023/12/22 02:54:47;;;;;;;32.53;6.00;;;;;;;;;;5048647;28;20055;-76
2023/12/22 02:57:13;;;;;;;32.08;4.65;;;;;;;;;;5045751;28;20146;-75
2023/12/22 02:59:40;;;;;;;33.67;3.97;;;;;;;;;;5049089;28;20041;-76
2023/12/22 03:02:06;;;;;;;33.90;5.05;;;;;;;;;;5031246;28;20029;-74
2023/12/22 03:04:32;;;;;;;37.67;5.38;;;;;;;;;;5031498;28;20120;-75
2023/12/22 03:06:58;;;;;;;32.17;5.70;;;;;;;;;;5061763;28;20040;-75
2023/12/22 03:09:24;;;;;;;34.40;4.25;;;;;;;;;;5059772;28;20024;-75
2023/12/22 03:11:54;;;;;;;25.88;3.92;;;;;;;;;;5049003;28;20049;-76
2023/12/22 03:14:20;;;;;;;34.63;5.55;;;;;;;;;;5046694;28;20104;-75
2023/12/22 03:16:46;;;;;;;30.70;4.68;;;;;;;;;;5047288;28;20025;-75
2023/12/22 03:19:12;;;;;;;32.92;5.50;;;;;;;;;;5029956;28;20056;-76
2023/12/22 03:21:39;;;;;;;33.45;5.85;;;;;;;;;;5047150;28;20057;-75
2023/12/22 03:24:05;;;;;;;36.50;5.30;;;;;;;;;;5048375;28;20163;-75
2023/12/22 03:26:31;;;;;;;30.83;4.65;;;;;;;;;;5047441;28;20114;-76
2023/12/22 03:28:57;;;;;;;40.58;6.45;;;;;;;;;;5048297;28;20080;-76
2023/12/22 03:31:23;;;;;;;34.25;5.95;;;;;;;;;;5047929;28;20041;-76
2023/12/22 03:33:50;;;;;;;33.42;5.47;;;;;;;;;;5047351;28;20036;-75
2023/12/22 03:36:16;;;;;;;38.13;5.05;;;;;;;;;;5046585;28;20037;-75
2023/12/22 03:38:42;;;;;;;43.35;5.95;;;;;;;;;;5045482;28;20036;-76
2023/12/22 03:41:08;;;;;;;30.48;4.82;;;;;;;;;;5048245;28;20027;-76
2023/12/22 03:43:34;;;;;;;32.63;4.40;;;;;;;;;;5048530;28;20032;-75
2023/12/22 03:46:00;;;;;;;30.67;4.57;;;;;;;;;;5047176;28;20098;-75
2023/12/22 03:48:26;;;;;;;30.00;4.55;;;;;;;;;;5045518;28;20136;-76
2023/12/22 03:50:53;;;;;;;41.15;6.00;;;;;;;;;;5048280;28;20040;-75
2023/12/22 03:53:19;;;;;;;37.65;5.57;;;;;;;;;;5048831;28;20032;-75
2023/12/22 03:55:45;;;;;;;28.48;4.63;;;;;;;;;;5048671;28;20041;-76
2023/12/22 03:58:12;;;;;;;28.33;6.10;;;;;;;;;;5046806;28;20037;-75
2023/12/22 04:00:38;;;;;;;34.13;5.32;;;;;;;;;;5047797;28;20144;-75
2023/12/22 04:03:04;;;;;;;23.85;4.32;;;;;;;;;;5047224;28;20161;-74
2023/12/22 04:05:31;;;;;;;29.85;3.95;;;;;;;;;;5043507;28;20094;-75
2023/12/22 04:07:57;;;;;;;29.50;5.55;;;;;;;;;;5051405;28;20508;-75
2023/12/22 04:10:23;;;;;;;30.60;5.30;;;;;;;;;;5053986;28;20040;-75
2023/12/22 04:12:49;;;;;;;34.65;5.95;;;;;;;;;;5053440;28;20045;-74
2023/12/22 04:15:16;;;;;;;31.10;4.75;;;;;;;;;;5051430;28;20029;-75
2023/12/22 04:17:42;;;;;;;38.33;4.80;;;;;;;;;;5051313;28;20033;-76
2023/12/22 04:20:08;;;;;;;30.55;5.00;;;;;;;;;;5052937;28;20310;-75
2023/12/22 04:22:35;;;;;;;36.67;5.63;;;;;;;;;;5051269;28;20124;-74
2023/12/22 04:25:01;;;;;;;36.83;5.88;;;;;;;;;;5051500;28;20102;-75
2023/12/22 04:27:27;;;;;;;25.40;4.70;;;;;;;;;;5051791;28;20044;-76
2023/12/22 04:29:53;;;;;;;37.67;4.97;;;;;;;;;;5018217;28;20037;-75
2023/12/22 04:32:20;;;;;;;32.03;4.00;;;;;;;;;;5054367;28;20450;-75
2023/12/22 04:34:47;;;;;;;34.45;4.55;;;;;;;;;;5048903;28;20033;-75
2023/12/22 04:37:13;;;;;;;35.60;4.43;;;;;;;;;;5051169;28;20036;-76
2023/12/22 04:39:39;;;;;;;31.23;4.68;;;;;;;;;;5051322;28;20029;-76
2023/12/22 04:42:05;;;;;;;42.17;5.75;;;;;;;;;;5050625;28;20045;-76
2023/12/22 04:44:31;;;;;;;28.75;4.72;;;;;;;;;;5047808;28;20029;-75
2023/12/22 04:46:57;;;;;;;32.53;5.15;;;;;;;;;;5050926;28;20171;-75
2023/12/22 04:49:24;;;;;;;28.85;5.03;;;;;;;;;;5051149;28;20033;-77
2023/12/22 04:51:50;;;;;;;27.80;4.32;;;;;;;;;;5050042;28;20098;-75
2023/12/22 04:54:16;;;;;;;34.15;6.32;;;;;;;;;;5047921;28;20029;-75
2023/12/22 04:56:42;;;;;;;32.55;5.22;;;;;;;;;;5034115;28;20079;-77
2023/12/22 04:59:08;;;;;;;30.92;4.05;;;;;;;;;;5049259;28;20029;-76
2023/12/22 05:01:35;;;;;;;32.03;3.80;;;;;;;;;;5033385;28;20045;-76
2023/12/22 05:04:02;;;;;;;30.67;3.80;;;;;;;;;;5047279;28;20398;-75
2023/12/22 05:06:31;;;;;;;30.23;4.38;;;;;;;;;;5051376;28;20068;-76
2023/12/22 05:08:57;;;;;;;32.42;4.55;;;;;;;;;;5050875;28;20025;-75
2023/12/22 05:11:23;;;;;;;24.75;3.72;;;;;;;;;;5050316;28;20470;-76
2023/12/22 05:13:50;;;;;;;29.67;4.05;;;;;;;;;;5050621;28;20041;-76
2023/12/22 05:16:16;;;;;;;30.73;4.57;;;;;;;;;;5048820;28;20073;-76
2023/12/22 05:18:42;;;;;;;30.05;3.90;;;;;;;;;;5050902;28;20563;-76
2023/12/22 05:21:08;;;;;;;19.50;3.50;;;;;;;;;;5049067;28;20037;-77
2023/12/22 05:23:34;;;;;;;26.65;3.92;;;;;;;;;;5049658;28;20394;-76
2023/12/22 05:26:00;;;;;;;19.52;3.88;;;;;;;;;;5049834;28;20064;-78
2023/12/22 05:28:26;;;;;;;17.60;3.10;;;;;;;;;;5053409;28;20056;-75
2023/12/22 05:30:52;;;;;;;30.50;4.20;;;;;;;;;;5048399;28;20562;-75
2023/12/22 05:33:18;;;;;;;14.27;2.78;;;;;;;;;;5049078;28;20029;-75
2023/12/22 05:35:44;;;;;;;16.52;3.10;;;;;;;;;;5048941;28;20033;-75
2023/12/22 05:38:10;;;;;;;17.08;4.07;;;;;;;;;;5032607;28;20063;-75
2023/12/22 05:40:37;;;;;;;25.48;4.07;;;;;;;;;;5049833;28;20095;-76
2023/12/22 05:43:03;;;;;;;19.27;3.78;;;;;;;;;;5032531;28;20128;-75
2023/12/22 05:45:29;;;;;;;26.90;4.00;;;;;;;;;;5047735;28;20025;-75
2023/12/22 05:47:55;;;;;;;27.05;4.13;;;;;;;;;;5045179;28;20513;-75
2023/12/22 05:50:21;;;;;;;30.98;3.70;;;;;;;;;;5049166;28;20123;-76
2023/12/22 05:52:47;;;;;;;26.52;4.38;;;;;;;;;;5048516;28;20014;-75
2023/12/22 05:55:14;;;;;;;26.50;4.43;;;;;;;;;;5045977;28;20036;-74
2023/12/22 05:57:40;;;;;;;24.35;4.20;;;;;;;;;;5048561;28;20025;-76
2023/12/22 06:00:07;;;;;;;25.27;3.45;;;;;;;;;;5050003;28;20037;-75
2023/12/22 06:02:36;;;;;;;28.88;4.40;;;;;;;;;;5048633;28;20090;-76
2023/12/22 06:05:03;;;;;;;29.13;3.78;;;;;;;;;;5048722;28;20120;-75
2023/12/22 06:07:29;;;;;;;24.98;4.57;;;;;;;;;;5049409;28;20079;-75
2023/12/22 06:09:55;;;;;;;29.40;4.35;;;;;;;;;;5043583;28;20502;-76
2023/12/22 06:12:21;;;;;;;34.03;4.32;;;;;;;;;;5040184;28;20366;-77
2023/12/22 06:14:47;;;;;;;36.33;5.63;;;;;;;;;;5044420;28;20067;-77
2023/12/22 06:17:13;;;;;;;23.55;4.00;;;;;;;;;;5047303;28;20047;-76
2023/12/22 06:19:40;;;;;;;31.17;5.68;;;;;;;;;;5032674;28;20060;-75
2023/12/22 06:22:07;;;;;;;30.13;5.07;;;;;;;;;;5028401;28;20095;-76
2023/12/22 06:24:36;;;;;;;23.02;4.85;;;;;;;;;;5031399;28;20402;-77
2023/12/22 06:27:02;;;;;;;27.98;4.45;;;;;;;;;;5034886;28;20029;-76
2023/12/22 06:29:28;;;;;;;37.25;6.68;;;;;;;;;;5046884;28;20041;-77
2023/12/22 06:31:54;;;;;;;30.08;4.85;;;;;;;;;;5047201;28;20105;-77
2023/12/22 06:34:20;;;;;;;26.00;4.18;;;;;;;;;;5066662;28;20029;-77
2023/12/22 06:36:46;;;;;;;36.25;6.47;;;;;;;;;;5036403;28;20075;-77
2023/12/22 06:39:12;;;;;;;32.88;5.65;;;;;;;;;;5042007;28;20048;-76
2023/12/22 06:41:38;;;;;;;30.85;5.75;;;;;;;;;;5044350;28;20296;-77
2023/12/22 06:44:05;;;;;;;30.15;5.13;;;;;;;;;;5053638;28;20040;-75
2023/12/22 06:46:31;;;;;;;36.30;5.10;;;;;;;;;;5049252;28;20068;-77
2023/12/22 06:48:57;;;;;;;30.00;5.38;;;;;;;;;;5049155;28;20120;-77
2023/12/22 06:51:28;;;;;;;44.55;5.85;;;;;;;;;;5055182;28;20052;-77
2023/12/22 06:53:55;;;;;;;38.92;5.72;;;;;;;;;;5047646;28;20390;-76
2023/12/22 06:56:23;;;;;;;40.25;6.38;;;;;;;;;;5051908;28;20037;-76
2023/12/22 06:58:50;;;;;;;31.73;5.45;;;;;;;;;;5062829;28;20028;-76
2023/12/22 07:01:24;;;;;;;41.67;6.40;;;;;;;;;;5063321;28;20033;-76
2023/12/22 07:03:50;;;;;;;44.33;6.43;;;;;;;;;;5054899;28;20029;-77
2023/12/22 07:06:17;;;;;;;43.88;6.57;;;;;;;;;;5055731;28;20036;-78
2023/12/22 07:08:44;;;;;;;41.80;6.30;;;;;;;;;;5048916;28;20064;-77
2023/12/22 07:11:10;;;;;;;41.28;8.27;;;;;;;;;;5049411;28;20041;-78
2023/12/22 07:13:40;;;;;;;41.35;6.32;;;;;;;;;;5049045;28;20391;-77
2023/12/22 07:16:06;;;;;;;42.22;6.97;;;;;;;;;;5047605;28;20043;-75
2023/12/22 07:18:32;;;;;;;41.03;7.50;;;;;;;;;;5048069;28;20041;-75
2023/12/22 07:20:59;;;;;;;43.80;6.72;;;;;;;;;;5035442;28;20033;-75
2023/12/22 07:23:25;;;;;;;43.42;6.15;;;;;;;;;;5044412;28;20037;-74
2023/12/22 07:25:51;;;;;;;35.90;6.07;;;;;;;;;;5049059;28;20128;-75
2023/12/22 07:28:21;;;;;;;39.45;6.93;;;;;;;;;;5028914;28;20038;-76
2023/12/22 07:30:47;;;;;;;36.03;6.35;;;;;;;;;;5050765;28;20025;-75
2023/12/22 07:33:13;;;;;;;38.20;5.63;;;;;;;;;;5030620;28;20025;-76
2023/12/22 07:35:39;;;;;;;39.20;5.38;;;;;;;;;;5039009;28;20483;-76
2023/12/22 07:38:05;;;;;;;47.70;7.70;;;;;;;;;;5047582;28;20033;-76
2023/12/22 07:40:32;;;;;;;51.80;7.53;;;;;;;;;;5032942;28;20048;-76
2023/12/22 07:42:58;;;;;;;48.78;7.72;;;;;;;;;;5049190;28;20041;-76
2023/12/22 07:45:24;;;;;;;50.38;8.15;;;;;;;;;;5027880;28;20049;-77
2023/12/22 07:47:54;;;;;;;53.10;8.35;;;;;;;;;;5068221;28;20029;-77
2023/12/22 07:50:21;;;;;;;52.35;6.57;;;;;;;;;;5062665;28;20525;-76
2023/12/22 07:52:47;;;;;;;47.70;8.23;;;;;;;;;;5067838;28;20552;-76
2023/12/22 07:55:13;;;;;;;60.42;10.30;;;;;;;;;;5046250;28;20039;-75
2023/12/22 07:57:41;;;;;;;55.38;7.63;;;;;;;;;;5041931;28;20025;-76
2023/12/22 08:00:10;;;;;;;53.72;7.43;;;;;;;;;;5028980;28;20055;-77
2023/12/22 08:02:39;;;;;;;48.50;7.20;;;;;;;;;;5043713;28;20471;-75
2023/12/22 08:05:06;;;;;;;49.97;6.55;;;;;;;;;;5069549;28;20037;-76
2023/12/22 08:07:32;;;;;;;47.00;7.45;;;;;;;;;;5046662;28;20044;-76
2023/12/22 08:09:58;;;;;;;41.83;8.02;;;;;;;;;;5046653;28;20025;-76
2023/12/22 08:12:24;;;;;;;35.85;6.68;;;;;;;;;;5041559;28;20042;-76
2023/12/22 08:14:50;;;;;;;22.63;3.33;;;;;;;;;;5043386;28;20060;-76
2023/12/22 08:17:16;;;;;;;24.20;3.88;;;;;;;;;;5037376;28;20053;-76
2023/12/22 08:19:43;;;;;;;19.73;4.13;;;;;;;;;;5040921;28;20247;-77
2023/12/22 08:22:15;;;;;;;21.98;4.13;;;;;;;;;;5049019;28;20045;-75
2023/12/22 08:24:41;;;;;;;21.95;4.40;;;;;;;;;;5043591;28;20029;-77
2023/12/22 08:27:08;;;;;;;31.98;6.20;;;;;;;;;;5027933;28;20080;-75
2023/12/22 08:29:34;;;;;;;42.03;5.53;;;;;;;;;;5032078;28;20060;-77
2023/12/22 08:32:00;;;;;;;34.60;5.00;;;;;;;;;;5033940;28;20033;-77
2023/12/22 08:34:27;;;;;;;36.88;5.82;;;;;;;;;;5042278;28;20041;-77
2023/12/22 08:36:53;;;;;;;38.63;5.05;;;;;;;;;;5048742;28;20206;-75
2023/12/22 08:39:19;;;;;;;35.47;5.97;;;;;;;;;;5049829;28;20032;-76
2023/12/22 08:41:45;;;;;;;49.10;6.90;;;;;;;;;;5066685;28;20036;-76
2023/12/22 08:44:14;;;;;;;34.92;5.45;;;;;;;;;;5048269;28;20498;-75
2023/12/22 08:46:40;;;;;;;34.95;6.72;;;;;;;;;;5039818;28;20056;-77
2023/12/22 08:49:08;;;;;;;35.30;5.47;;;;;;;;;;5048155;28;20134;-77
2023/12/22 08:51:34;;;;;;;40.97;6.93;;;;;;;;;;5064296;28;20048;-75
2023/12/22 08:54:00;;;;;;;39.45;6.07;;;;;;;;;;5078234;28;20033;-76
2023/12/22 08:56:26;;;;;;;35.72;5.55;;;;;;;;;;5037442;28;20053;-76
2023/12/22 08:58:54;;;;;;;28.02;5.82;;;;;;;;;;5042957;28;20108;-76
2023/12/22 09:01:21;;;;;;;34.78;6.05;;;;;;;;;;5059350;28;20037;-77
2023/12/22 09:03:48;;;;;;;39.22;5.00;;;;;;;;;;5047488;28;20099;-76
2023/12/22 09:06:15;;;;;;;18.35;3.70;;;;;;;;;;5050372;28;20033;-75
2023/12/22 09:08:42;;;;;;;18.98;3.20;;;;;;;;;;5041265;28;20813;-75
2023/12/22 09:11:08;;;;;;;30.23;4.45;;;;;;;;;;5040380;28;20033;-75
2023/12/22 09:13:35;;;;;;;22.85;4.35;;;;;;;;;;5050366;28;20056;-75
2023/12/22 09:16:05;;;;;;;29.65;5.32;;;;;;;;;;5031765;28;20044;-76
2023/12/22 09:18:31;;;;;;;25.65;5.15;;;;;;;;;;5032429;28;20556;-74
2023/12/22 09:20:58;;;;;;;35.97;5.28;;;;;;;;;;5031314;28;20056;-76
2023/12/22 09:23:24;;;;;;;31.55;4.82;;;;;;;;;;5031228;28;20033;-76
2023/12/22 09:25:50;;;;;;;31.02;5.20;;;;;;;;;;5046710;28;20029;-76
2023/12/22 09:28:16;;;;;;;33.20;4.55;;;;;;;;;;5049026;28;20025;-75
2023/12/22 09:30:43;;;;;;;25.63;4.72;;;;;;;;;;5056208;28;20334;-76
2023/12/22 09:33:10;;;;;;;27.35;4.07;;;;;;;;;;5034718;28;20380;-78
2023/12/22 09:35:37;;;;;;;24.55;3.80;;;;;;;;;;5032052;28;20108;-76
2023/12/22 09:38:03;;;;;;;41.67;5.78;;;;;;;;;;5042005;28;20466;-79
2023/12/22 09:40:30;;;;;;;20.98;3.90;;;;;;;;;;5033008;28;20041;-75
2023/12/22 09:42:58;;;;;;;23.63;4.38;;;;;;;;;;5045594;28;20033;-76
2023/12/22 09:45:24;;;;;;;27.55;4.93;;;;;;;;;;5043316;28;20045;-77
2023/12/22 09:47:54;;;;;;;25.38;4.95;;;;;;;;;;5048175;28;20120;-77
2023/12/22 09:50:24;;;;;;;21.93;4.30;;;;;;;;;;5023800;28;20040;-76
2023/12/22 09:52:50;;;;;;;18.67;3.80;;;;;;;;;;5040911;28;20487;-76
2023/12/22 09:55:20;;;;;;;19.45;3.70;;;;;;;;;;5050047;28;20078;-75
2023/12/22 09:57:47;;;;;;;24.00;3.20;;;;;;;;;;5050886;28;20029;-76
2023/12/22 10:00:15;;;;;;;18.45;3.80;;;;;;;;;;5050267;28;20186;-76
2023/12/22 10:02:42;;;;;;;16.75;3.10;;;;;;;;;;5046322;28;20029;-77
2023/12/22 10:05:10;;;;;;;22.13;5.53;;;;;;;;;;5030952;28;20082;-76
2023/12/22 10:07:36;;;;;;;19.08;3.80;;;;;;;;;;5038238;28;20049;-76
2023/12/22 10:10:04;;;;;;;19.50;3.83;;;;;;;;;;5033817;28;20061;-75
2023/12/22 10:12:30;;;;;;;16.70;3.30;;;;;;;;;;5048706;28;20020;-79
2023/12/22 10:15:00;;;;;;;17.85;3.85;;;;;;;;;;5048239;28;20045;-77
2023/12/22 10:17:26;;;;;;;15.55;3.42;;;;;;;;;;5032711;28;20037;-77
2023/12/22 10:19:53;;;;;;;16.10;3.42;;;;;;;;;;5029321;28;20045;-77
2023/12/22 10:22:21;;;;;;;14.88;2.92;;;;;;;;;;5046540;28;20025;-76
2023/12/22 10:24:47;;;;;;;18.23;3.08;;;;;;;;;;5044573;28;20063;-76
2023/12/22 10:27:14;;;;;;;14.32;2.97;;;;;;;;;;5048640;28;20029;-78
2023/12/22 10:29:40;;;;;;;11.50;3.05;;;;;;;;;;5030396;28;20415;-77
2023/12/22 10:32:06;;;;;;;16.25;3.08;;;;;;;;;;5045065;28;20470;-76
2023/12/22 10:34:33;;;;;;;17.50;3.25;;;;;;;;;;5051815;28;20268;-76
2023/12/22 10:37:00;;;;;;;20.65;4.15;;;;;;;;;;5040978;28;20032;-75
2023/12/22 10:39:30;;;;;;;18.75;3.70;;;;;;;;;;5032543;28;20032;-75
2023/12/22 10:41:57;;;;;;;16.55;3.13;;;;;;;;;;5035120;28;20112;-76
2023/12/22 10:44:26;;;;;;;15.35;3.08;;;;;;;;;;5045539;28;20040;-76
2023/12/22 10:46:54;;;;;;;18.90;3.00;;;;;;;;;;5020224;28;20140;-76
2023/12/22 10:49:21;;;;;;;19.08;2.80;;;;;;;;;;5046312;28;20028;-75
2023/12/22 10:51:47;;;;;;;22.13;4.32;;;;;;;;;;5046871;28;20043;-76
2023/12/22 10:54:14;;;;;;;19.88;3.40;;;;;;;;;;5036752;28;20114;-77
2023/12/22 10:56:41;;;;;;;18.05;2.90;;;;;;;;;;5035104;28;20053;-76
2023/12/22 10:59:08;;;;;;;18.02;3.33;;;;;;;;;;5032262;28;20116;-75
2023/12/22 11:01:38;;;;;;;12.43;2.60;;;;;;;;;;5036838;28;20028;-78
2023/12/22 11:04:06;;;;;;;17.30;2.55;;;;;;;;;;5035390;28;20044;-79
2023/12/22 11:06:36;;;;;;;20.20;3.35;;;;;;;;;;5047096;28;20036;-76
2023/12/22 11:09:06;;;;;;;19.83;3.37;;;;;;;;;;5026571;28;20068;-77
2023/12/22 11:11:37;;;;;;;14.63;2.95;;;;;;;;;;5046168;28;20035;-76
2023/12/22 11:14:04;;;;;;;17.67;3.47;;;;;;;;;;5046892;28;20056;-75
2023/12/22 11:16:30;;;;;;;16.15;3.50;;;;;;;;;;5046024;28;20033;-76
2023/12/22 11:18:57;;;;;;;15.93;3.45;;;;;;;;;;5040224;28;20355;-78
2023/12/22 11:21:23;;;;;;;17.40;2.75;;;;;;;;;;5053077;28;20113;-77
2023/12/22 11:23:51;;;;;;;16.90;2.90;;;;;;;;;;5033330;28;20033;-76
2023/12/22 11:26:18;;;;;;;16.13;2.85;;;;;;;;;;5037522;28;20033;-77
2023/12/22 11:28:45;;;;;;;12.73;2.60;;;;;;;;;;5045675;28;20025;-77
2023/12/22 11:31:12;;;;;;;14.90;2.78;;;;;;;;;;5048174;28;20032;-76
2023/12/22 11:33:40;;;;;;;10.43;1.92;;;;;;;;;;5045221;28;20041;-77
2023/12/22 11:36:07;;;;;;;13.15;2.40;;;;;;;;;;5046278;28;20026;-75
2023/12/22 11:38:34;;;;;;;14.30;2.78;;;;;;;;;;5045042;28;20031;-77
2023/12/22 11:41:02;;;;;;;18.35;2.60;;;;;;;;;;5043389;28;20035;-77
2023/12/22 11:43:29;;;;;;;15.38;2.40;;;;;;;;;;5035204;28;20024;-76
2023/12/22 11:45:56;;;;;;;16.48;2.85;;;;;;;;;;5041889;28;20037;-77
2023/12/22 11:48:22;;;;;;;16.27;2.58;;;;;;;;;;5036456;28;20106;-75
2023/12/22 11:50:49;;;;;;;18.00;3.13;;;;;;;;;;5032309;28;20038;-75
2023/12/22 11:53:18;;;;;;;25.85;3.72;;;;;;;;;;5035856;28;20033;-76
2023/12/22 11:55:57;;;;;;;17.45;2.88;;;;;;;;;;5044869;28;20505;-78
2023/12/22 11:58:38;;;;;;;19.50;3.33;;;;;;;;;;5034877;28;20053;-79
2023/12/22 12:01:04;;;;;;;;;;;;;;;;;;5043656;28;20052;-77
2023/12/22 12:03:31;;;;;;;21.33;3.13;;;;;;;;;;5047666;28;19913;-77
2023/12/22 12:06:30;;;;;;;20.17;2.80;;;;;;;;;;5036600;28;20126;-77
2023/12/22 12:08:56;;;;;;;18.92;3.00;;;;;;;;;;5025206;28;20104;-77
2023/12/22 12:11:24;;;;;;;19.38;3.20;;;;;;;;;;5036253;28;20319;-76
2023/12/22 12:13:53;;;;;;;15.88;2.67;;;;;;;;;;5046492;28;20048;-77
2023/12/22 12:16:21;;;;;;;22.42;3.25;;;;;;;;;;5043015;28;20071;-77
2023/12/22 12:18:47;;;;;;;15.90;3.50;;;;;;;;;;5042877;28;20025;-78
2023/12/22 12:21:13;;;;;;;15.65;2.83;;;;;;;;;;5030363;28;20303;-76
2023/12/22 12:23:41;;;;;;;20.20;2.55;;;;;;;;;;5045771;28;20112;-76
2023/12/22 12:26:08;;;;;;;17.73;2.25;;;;;;;;;;5044465;28;20036;-76
2023/12/22 12:28:35;;;;;;;19.73;3.00;;;;;;;;;;5043662;28;20056;-75
2023/12/22 12:31:03;;;;;;;18.63;2.60;;;;;;;;;;5047959;28;20274;-76
2023/12/22 12:33:30;;;;;;;17.25;2.80;;;;;;;;;;5047042;28;20048;-76
2023/12/22 12:35:57;;;;;;;16.73;2.63;;;;;;;;;;5055027;28;20059;-78
2023/12/22 12:38:29;;;;;;;14.57;2.40;;;;;;;;;;5049392;28;20512;-76
2023/12/22 12:40:57;;;;;;;19.25;2.78;;;;;;;;;;5042768;28;20029;-77
2023/12/22 12:43:24;;;;;;;21.45;3.65;;;;;;;;;;5047960;28;20043;-79
2023/12/22 12:45:52;;;;;;;17.90;2.80;;;;;;;;;;5043632;28;20056;-76
2023/12/22 12:48:18;;;;;;;20.75;2.90;;;;;;;;;;5047992;28;20140;-76
2023/12/22 12:50:44;;;;;;;18.67;3.22;;;;;;;;;;5043188;28;20107;-76
2023/12/22 12:53:13;;;;;;;17.05;2.60;;;;;;;;;;5046370;28;20450;-76
2023/12/22 12:55:39;;;;;;;20.17;2.72;;;;;;;;;;5047225;28;20025;-76
2023/12/22 12:58:06;;;;;;;16.50;2.90;;;;;;;;;;5053304;28;20462;-77
2023/12/22 13:00:35;;;;;;;21.52;3.17;;;;;;;;;;5051605;28;20052;-77
2023/12/22 13:03:02;;;;;;;22.67;2.90;;;;;;;;;;5044904;28;20028;-76
2023/12/22 13:05:29;;;;;;;17.88;3.20;;;;;;;;;;5079437;28;20108;-78
2023/12/22 13:08:07;;;;;;;17.90;4.13;;;;;;;;;;5049750;28;20021;-79
2023/12/22 13:10:33;;;;;;;18.13;2.47;;;;;;;;;;5046896;28;20127;-77
2023/12/22 13:12:59;;;;;;;10.95;2.38;;;;;;;;;;5048415;28;20067;-77
2023/12/22 13:15:26;;;;;;;14.50;2.58;;;;;;;;;;5040732;28;20129;-79
2023/12/22 13:17:53;;;;;;;12.73;2.33;;;;;;;;;;5040110;28;20040;-79
2023/12/22 13:20:19;;;;;;;20.48;2.53;;;;;;;;;;5051365;28;20040;-78
2023/12/22 13:22:45;;;;;;;19.23;2.65;;;;;;;;;;5032568;28;20072;-77
2023/12/22 13:25:12;;;;;;;17.13;3.20;;;;;;;;;;5044504;28;20450;-77
2023/12/22 13:27:48;;;;;;;16.48;3.13;;;;;;;;;;5079536;28;20033;-77
2023/12/22 13:30:33;;;;;;;18.08;2.92;;;;;;;;;;5044100;28;20033;-80
2023/12/22 13:32:59;;;;;;;16.77;3.10;;;;;;;;;;5041464;28;20087;-76
2023/12/22 13:35:27;;;;;;;16.77;2.88;;;;;;;;;;5037760;28;20041;-78
2023/12/22 13:37:54;;;;;;;17.25;2.83;;;;;;;;;;5028527;28;20288;-84
2023/12/22 13:40:20;;;;;;;21.58;2.90;;;;;;;;;;5044432;28;20043;-76
2023/12/22 13:42:53;;;;;;;12.63;2.40;;;;;;;;;;5048473;28;20055;-78
2023/12/22 13:45:20;;;;;;;22.70;3.40;;;;;;;;;;5046417;28;20029;-76
2023/12/22 13:47:46;;;;;;;22.60;2.90;;;;;;;;;;5041600;28;20032;-75
2023/12/22 13:50:22;;;;;;;19.20;3.00;;;;;;;;;;5047352;28;20068;-77
2023/12/22 13:52:50;;;;;;;19.88;3.65;;;;;;;;;;5044529;28;20033;-75
2023/12/22 13:55:17;;;;;;;16.38;3.13;;;;;;;;;;5040159;28;20370;-75
2023/12/22 13:57:44;;;;;;;18.70;3.17;;;;;;;;;;5045369;28;20136;-76
2023/12/22 14:00:19;;;;;;;22.83;3.90;;;;;;;;;;5045925;28;20043;-76
2023/12/22 14:02:46;;;;;;;17.52;3.55;;;;;;;;;;5046040;28;20090;-77
2023/12/22 14:05:12;;;;;;;18.42;3.72;;;;;;;;;;5045840;28;20927;-76
2023/12/22 14:07:38;;;;;;;19.88;3.28;;;;;;;;;;5045805;28;20033;-76
2023/12/22 14:10:05;;;;;;;16.63;3.70;;;;;;;;;;5061306;28;20040;-75
2023/12/22 14:12:31;;;;;;;18.95;2.95;;;;;;;;;;5046266;28;20029;-76
2023/12/22 14:14:58;;;;;;;19.75;3.83;;;;;;;;;;5051071;28;20045;-76
2023/12/22 14:17:24;;;;;;;23.27;3.25;;;;;;;;;;5046789;28;20036;-76
2023/12/22 14:19:50;;;;;;;21.58;3.17;;;;;;;;;;5041356;28;20037;-77
2023/12/22 14:22:16;;;;;;;25.45;2.80;;;;;;;;;;5044159;28;20541;-73
2023/12/22 14:24:43;;;;;;;21.65;3.13;;;;;;;;;;5045005;28;20237;-76
2023/12/22 14:27:10;;;;;;;24.33;4.53;;;;;;;;;;5047501;28;20028;-78
2023/12/22 14:29:40;;;;;;;29.42;3.35;;;;;;;;;;5045597;28;20037;-76